If you wish to contribute or participate in the discussions about articles you are invited to join SKYbrary as a registered user

 Actions

Toussus-le-Noble Airport

From SKYbrary Wiki

LFPN
Airport
ICAO: LFPN – IATA: TNF
Summary
Name Toussus-le-Noble Airport
Region Europe
Territory France FR.gif
Location , Ile-de-France
Serving Toussous-le-noble
Elevation 163.982 m
538 ft
538 ft163.982 m
Type medium airport
Coordinates 48° 45' 6.92" N, 2° 6' 22.28" E
Runways
Designator Length Width Surface ROPS
07L/25R 1100 m3,608.924 ft
30 m98.425 ft
ASP /
07R/25L 1050 m3,444.882 ft
30 m98.425 ft
ASP /


METAR
Observation LFPN 270830Z AUTO 04010KT 010V080 CAVOK 25/18 Q1023 NOSIG
Station Toussus Le Noble
Date/Time 27 June 2019 08:30:00
Wind direction 40°
Wind speed 10 kts
Lowest cloud amount clouds and visibility OK
Temperature 25°C
Dew point 18°C
Humidity 65%
QNH 1023 hPa
Weather condition n/a